Terminal Aerodrome Forecast
Issued by NWS

Home | Current Version | Previous Version | Graphics & Text | Print | Product List | Glossary On
Versions: 1 2 3 4 5 6 7 8 9 10 11 12 13 14 15 16 17 18 19 20 21 22
000
FTUS43 KBIS 240500
TAFJMS
TAF
KJMS 240536Z 2406/2506 33008KT P6SM OVC008
      TEMPO 2406/2410 SCT008 OVC012
     FM241000 27003KT 5SM BR OVC007
      TEMPO 2410/2414 2SM BR OVC004
     FM241800 19007KT P6SM BKN100
     FM250200 22010KT P6SM SCT035 BKN050 OVC080=

USA.gov is the U.S. government's official web portal to all federal, state and local government web resources and services.